createdAt,value
2023-02-06T00:07:32.668Z,415.00
2023-02-06T00:08:33.705Z,363.00
2023-02-06T00:09:33.665Z,363.00
2023-02-06T00:10:33.661Z,361.00
2023-02-06T00:11:33.637Z,362.00
2023-02-06T00:12:33.650Z,363.00
2023-02-06T00:13:33.633Z,359.00
2023-02-06T00:14:33.622Z,359.00
2023-02-06T00:15:33.712Z,359.00
2023-02-06T00:16:33.579Z,359.00
2023-02-06T00:17:33.562Z,363.00
2023-02-06T00:18:33.587Z,371.00
2023-02-06T00:19:33.556Z,369.00
2023-02-06T00:20:33.542Z,371.00
2023-02-06T00:21:33.505Z,367.00
2023-02-06T00:22:33.517Z,367.00
2023-02-06T00:23:33.527Z,368.00
2023-02-06T00:24:33.508Z,369.00
2023-02-06T00:25:33.686Z,363.00
2023-02-06T00:26:33.493Z,362.00
2023-02-06T00:27:33.446Z,359.00
2023-02-06T00:28:33.449Z,360.00
2023-02-06T00:29:33.412Z,361.00
2023-02-06T00:30:33.477Z,363.00
2023-02-06T00:31:33.442Z,361.00
2023-02-06T00:32:33.406Z,358.00
2023-02-06T00:33:33.360Z,359.00
2023-02-06T00:34:33.392Z,358.00
2023-02-06T00:35:33.612Z,358.00
2023-02-06T00:36:33.354Z,355.00
2023-02-06T00:37:33.339Z,355.00
2023-02-06T00:38:33.316Z,355.00
2023-02-06T00:39:33.283Z,355.00
2023-02-06T00:40:33.320Z,356.00
2023-02-06T00:41:33.299Z,355.00
2023-02-06T00:42:33.248Z,358.00
2023-02-06T00:43:33.319Z,358.00
2023-02-06T00:44:33.235Z,360.00
2023-02-06T00:45:33.413Z,359.00
2023-02-06T00:46:33.302Z,359.00
2023-02-06T00:47:33.195Z,358.00
2023-02-06T00:48:33.190Z,358.00
2023-02-06T00:49:33.328Z,359.00
2023-02-06T00:50:33.190Z,357.00
2023-02-06T00:51:33.162Z,358.00
2023-02-06T00:52:33.135Z,357.00
2023-02-06T00:53:33.128Z,357.00
2023-02-06T00:54:33.123Z,357.00
2023-02-06T00:55:33.415Z,357.00
2023-02-06T00:56:33.105Z,356.00
2023-02-06T00:57:33.066Z,357.00
2023-02-06T00:58:33.091Z,356.00
2023-02-06T00:59:33.062Z,359.00
2023-02-06T01:00:33.043Z,360.00
2023-02-06T01:01:33.086Z,360.00
2023-02-06T01:02:33.044Z,360.00
2023-02-06T01:03:33.017Z,358.00
2023-02-06T01:04:33.010Z,358.00
2023-02-06T01:05:33.136Z,357.00
2023-02-06T01:06:32.955Z,358.00
2023-02-06T01:07:32.950Z,357.00
2023-02-06T01:08:32.944Z,358.00
2023-02-06T01:09:32.964Z,358.00
2023-02-06T01:10:32.955Z,358.00
2023-02-06T01:11:32.903Z,362.00
2023-02-06T01:12:32.923Z,362.00
2023-02-06T01:13:32.873Z,362.00
2023-02-06T01:14:32.867Z,360.00
2023-02-06T01:15:33.110Z,359.00
2023-02-06T01:16:32.870Z,359.00
2023-02-06T01:17:32.837Z,358.00
2023-02-06T01:18:32.829Z,358.00
2023-02-06T01:19:32.818Z,358.00
2023-02-06T01:20:32.789Z,357.00
2023-02-06T01:21:32.786Z,357.00
2023-02-06T01:22:32.771Z,357.00
2023-02-06T01:23:32.776Z,359.00
2023-02-06T01:24:32.729Z,359.00
2023-02-06T01:25:32.760Z,357.00
2023-02-06T01:26:32.722Z,354.00
2023-02-06T01:27:32.803Z,356.00
2023-02-06T01:28:32.699Z,359.00
2023-02-06T01:29:32.677Z,357.00
2023-02-06T01:30:32.686Z,357.00
2023-02-06T01:31:32.729Z,356.00
2023-02-06T01:32:32.633Z,355.00
2023-02-06T01:33:32.654Z,356.00
2023-02-06T01:34:32.612Z,355.00
2023-02-06T01:35:32.787Z,357.00
2023-02-06T01:36:32.578Z,359.00
2023-02-06T01:37:32.590Z,359.00
2023-02-06T01:38:32.595Z,358.00
2023-02-06T01:39:32.575Z,356.00
2023-02-06T01:40:32.548Z,354.00
2023-02-06T01:41:32.553Z,354.00
2023-02-06T01:42:32.509Z,353.00
2023-02-06T01:43:32.504Z,353.00
2023-02-06T01:44:32.490Z,352.00
2023-02-06T01:45:32.498Z,348.00
2023-02-06T01:46:32.500Z,349.00
2023-02-06T01:47:32.465Z,349.00
2023-02-06T01:48:32.437Z,349.00
2023-02-06T01:49:32.433Z,349.00
2023-02-06T01:50:32.411Z,352.00
2023-02-06T01:51:32.426Z,350.00
2023-02-06T01:52:32.415Z,353.00
2023-02-06T01:53:32.370Z,355.00
2023-02-06T01:54:32.377Z,354.00
2023-02-06T01:55:32.464Z,353.00
2023-02-06T01:56:32.341Z,351.00
2023-02-06T01:57:32.333Z,351.00
2023-02-06T01:58:32.336Z,349.00
2023-02-06T01:59:32.306Z,349.00
2023-02-06T02:00:32.315Z,351.00
2023-02-06T02:01:32.325Z,349.00
2023-02-06T02:02:32.275Z,350.00
2023-02-06T02:03:32.251Z,353.00
2023-02-06T02:04:32.260Z,352.00
2023-02-06T02:05:32.236Z,355.00
2023-02-06T02:06:32.229Z,354.00
2023-02-06T02:07:32.197Z,356.00
2023-02-06T02:08:32.232Z,354.00
2023-02-06T02:09:32.198Z,356.00
2023-02-06T02:10:32.197Z,356.00
2023-02-06T02:11:32.172Z,358.00
2023-02-06T02:12:32.151Z,357.00
2023-02-06T02:13:32.125Z,355.00
2023-02-06T02:14:32.121Z,354.00
2023-02-06T02:15:32.133Z,355.00
2023-02-06T02:16:32.175Z,356.00
2023-02-06T02:17:32.142Z,358.00
2023-02-06T02:18:32.070Z,357.00
2023-02-06T02:19:32.096Z,361.00
2023-02-06T02:20:32.076Z,362.00
2023-02-06T02:21:32.070Z,361.00
2023-02-06T02:22:32.052Z,361.00
2023-02-06T02:23:32.004Z,359.00
2023-02-06T02:24:32.014Z,359.00
2023-02-06T02:25:31.997Z,357.00
2023-02-06T02:26:32.035Z,358.00
2023-02-06T02:27:32.007Z,356.00
2023-02-06T02:28:31.956Z,357.00
2023-02-06T02:29:31.953Z,356.00
2023-02-06T02:30:31.969Z,351.00
2023-02-06T02:31:31.987Z,353.00
2023-02-06T02:32:31.916Z,355.00
2023-02-06T02:33:31.900Z,353.00
2023-02-06T02:34:31.903Z,352.00
2023-02-06T02:35:31.876Z,352.00
2023-02-06T02:36:31.871Z,354.00
2023-02-06T02:37:31.858Z,352.00
2023-02-06T02:38:31.875Z,353.00
2023-02-06T02:39:31.840Z,352.00
2023-02-06T02:40:31.842Z,351.00
2023-02-06T02:41:31.803Z,352.00
2023-02-06T02:42:31.815Z,352.00
2023-02-06T02:43:31.852Z,351.00
2023-02-06T02:44:31.767Z,351.00
2023-02-06T02:45:31.763Z,352.00
2023-02-06T02:46:31.749Z,360.00
2023-02-06T02:47:31.751Z,363.00
2023-02-06T02:48:31.705Z,367.00
2023-02-06T02:49:31.706Z,371.00
2023-02-06T02:50:31.696Z,373.00
2023-02-06T02:51:31.696Z,375.00
2023-02-06T02:52:31.656Z,377.00
2023-02-06T02:53:31.657Z,380.00
2023-02-06T02:54:31.635Z,384.00
2023-02-06T02:55:31.640Z,388.00
2023-02-06T02:56:31.601Z,390.00
2023-02-06T02:57:31.595Z,398.00
2023-02-06T02:58:31.585Z,397.00
2023-02-06T02:59:31.578Z,405.00
2023-02-06T03:00:31.610Z,402.00
2023-02-06T03:01:31.593Z,396.00
2023-02-06T03:02:31.608Z,397.00
2023-02-06T03:03:31.530Z,397.00
2023-02-06T03:04:31.535Z,394.00
2023-02-06T03:05:31.503Z,397.00
2023-02-06T03:06:31.479Z,398.00
2023-02-06T03:07:31.456Z,401.00
2023-02-06T03:08:31.455Z,403.00
2023-02-06T03:09:31.460Z,401.00
2023-02-06T03:10:31.436Z,401.00
2023-02-06T03:11:31.418Z,402.00
2023-02-06T03:12:31.423Z,414.00
2023-02-06T03:13:31.389Z,412.00
2023-02-06T03:14:31.392Z,412.00
2023-02-06T03:15:31.379Z,405.00
2023-02-06T03:16:31.419Z,398.00
2023-02-06T03:17:31.362Z,388.00
2023-02-06T03:18:31.378Z,381.00
2023-02-06T03:19:31.306Z,377.00
2023-02-06T03:20:31.354Z,380.00
2023-02-06T03:21:31.330Z,379.00
2023-02-06T03:22:31.315Z,375.00
2023-02-06T03:23:31.266Z,370.00
2023-02-06T03:24:31.287Z,370.00
2023-02-06T03:25:31.243Z,375.00
2023-02-06T03:26:31.247Z,382.00
2023-02-06T03:27:31.245Z,391.00
2023-02-06T03:28:31.227Z,405.00
2023-02-06T03:29:31.182Z,410.00
2023-02-06T03:30:31.202Z,410.00
2023-02-06T03:31:31.230Z,413.00
2023-02-06T03:32:31.171Z,415.00
2023-02-06T03:33:31.153Z,412.00
2023-02-06T03:34:31.145Z,410.00
2023-02-06T03:35:31.127Z,407.00
2023-02-06T03:36:31.126Z,408.00
2023-02-06T03:37:31.112Z,411.00
2023-02-06T03:38:31.095Z,406.00
2023-02-06T03:39:31.077Z,401.00
2023-02-06T03:40:31.060Z,400.00
2023-02-06T03:41:31.052Z,396.00
2023-02-06T03:42:31.072Z,397.00
2023-02-06T03:43:31.021Z,392.00
2023-02-06T03:44:31.006Z,389.00
2023-02-06T03:45:31.060Z,392.00
2023-02-06T03:46:30.979Z,395.00
2023-02-06T03:47:31.126Z,399.00
2023-02-06T03:48:30.996Z,394.00
2023-02-06T03:49:30.963Z,400.00
2023-02-06T03:50:30.926Z,402.00
2023-02-06T03:51:30.943Z,410.00
2023-02-06T03:52:31.073Z,408.00
2023-02-06T03:53:30.897Z,410.00
2023-02-06T03:54:30.871Z,410.00
2023-02-06T03:55:30.871Z,405.00
2023-02-06T03:56:30.874Z,406.00
2023-02-06T03:57:30.861Z,406.00
2023-02-06T03:58:30.831Z,412.00
2023-02-06T03:59:30.817Z,426.00
2023-02-06T04:00:30.822Z,431.00
2023-02-06T04:01:30.841Z,447.00
2023-02-06T04:02:30.831Z,439.00
2023-02-06T04:03:30.797Z,437.00
2023-02-06T04:04:30.788Z,434.00
2023-02-06T04:05:30.746Z,417.00
2023-02-06T04:06:30.745Z,430.00
2023-02-06T04:07:30.739Z,426.00
2023-02-06T04:08:30.708Z,419.00
2023-02-06T04:09:30.723Z,413.00
2023-02-06T04:10:30.693Z,398.00
2023-02-06T04:11:30.687Z,383.00
2023-02-06T04:12:30.670Z,369.00
2023-02-06T04:13:30.655Z,369.00
2023-02-06T04:14:30.648Z,378.00
2023-02-06T04:15:30.663Z,391.00
2023-02-06T04:16:30.652Z,404.00
2023-02-06T04:17:46.319Z,401.00
2023-02-06T04:18:30.582Z,397.00
2023-02-06T04:19:30.589Z,401.00
2023-02-06T04:20:30.583Z,401.00
2023-02-06T04:21:30.579Z,400.00
2023-02-06T04:22:30.549Z,397.00
2023-02-06T04:23:30.547Z,397.00
2023-02-06T04:24:31.121Z,377.00
2023-02-06T04:25:30.573Z,376.00
2023-02-06T04:26:30.513Z,377.00
2023-02-06T04:27:30.486Z,381.00
2023-02-06T04:28:30.451Z,384.00
2023-02-06T04:29:30.466Z,382.00
2023-02-06T04:30:30.529Z,380.00
2023-02-06T04:31:30.489Z,373.00
2023-02-06T04:32:30.406Z,373.00
2023-02-06T04:33:30.388Z,374.00
2023-02-06T04:34:30.371Z,370.00
2023-02-06T04:35:30.388Z,372.00
2023-02-06T04:36:30.358Z,362.00
2023-02-06T04:37:30.689Z,362.00
2023-02-06T04:38:30.327Z,359.00
2023-02-06T04:39:30.319Z,357.00
2023-02-06T04:40:30.317Z,356.00
2023-02-06T04:41:30.313Z,356.00
2023-02-06T04:42:30.296Z,358.00
2023-02-06T04:43:30.293Z,356.00
2023-02-06T04:44:30.251Z,353.00
2023-02-06T04:45:30.294Z,351.00
2023-02-06T04:46:30.316Z,351.00
2023-02-06T04:47:30.254Z,351.00
2023-02-06T04:48:30.251Z,356.00
2023-02-06T04:49:30.216Z,359.00
2023-02-06T04:50:30.207Z,358.00
2023-02-06T04:51:30.213Z,357.00
2023-02-06T04:52:30.160Z,356.00
2023-02-06T04:53:30.163Z,354.00
2023-02-06T04:54:32.423Z,354.00
2023-02-06T04:55:30.116Z,355.00
2023-02-06T04:56:30.107Z,349.00
2023-02-06T04:57:30.124Z,350.00
2023-02-06T04:58:30.094Z,355.00
2023-02-06T04:59:30.075Z,358.00
2023-02-06T05:00:30.085Z,362.00
2023-02-06T05:01:30.097Z,368.00
2023-02-06T05:02:30.062Z,369.00
2023-02-06T05:03:30.035Z,367.00
2023-02-06T05:04:30.052Z,368.00
2023-02-06T05:05:30.002Z,364.00
2023-02-06T05:06:29.995Z,368.00
2023-02-06T05:07:29.963Z,372.00
2023-02-06T05:08:29.967Z,371.00
2023-02-06T05:09:29.938Z,367.00
2023-02-06T05:10:29.941Z,364.00
2023-02-06T05:11:29.932Z,362.00
2023-02-06T05:12:29.920Z,360.00
2023-02-06T05:13:29.891Z,356.00
2023-02-06T05:14:29.894Z,357.00
2023-02-06T05:15:29.884Z,355.00
2023-02-06T05:16:29.854Z,355.00
2023-02-06T05:17:29.842Z,355.00
2023-02-06T05:18:29.828Z,356.00
2023-02-06T05:19:29.844Z,354.00
2023-02-06T05:20:29.790Z,352.00
2023-02-06T05:21:29.809Z,351.00
2023-02-06T05:22:29.795Z,353.00
2023-02-06T05:23:29.777Z,353.00
2023-02-06T05:24:29.769Z,353.00
2023-02-06T05:25:29.780Z,353.00
2023-02-06T05:26:29.733Z,354.00
2023-02-06T05:27:29.720Z,354.00
2023-02-06T05:28:29.717Z,353.00
2023-02-06T05:29:29.716Z,354.00
2023-02-06T05:30:29.755Z,352.00
2023-02-06T05:31:29.743Z,353.00
2023-02-06T05:32:29.650Z,351.00
2023-02-06T05:33:29.664Z,349.00
2023-02-06T05:34:29.613Z,352.00
2023-02-06T05:35:29.635Z,357.00
2023-02-06T05:36:29.590Z,357.00
2023-02-06T05:37:29.614Z,360.00
2023-02-06T05:38:29.591Z,360.00
2023-02-06T05:39:29.588Z,361.00
2023-02-06T05:40:29.553Z,357.00
2023-02-06T05:41:29.534Z,356.00
2023-02-06T05:42:29.537Z,358.00
2023-02-06T05:43:29.507Z,358.00
2023-02-06T05:44:29.532Z,356.00
2023-02-06T05:45:29.513Z,355.00
2023-02-06T05:46:29.570Z,361.00
2023-02-06T05:47:29.474Z,364.00
2023-02-06T05:48:29.458Z,364.00
2023-02-06T05:49:29.449Z,369.00
2023-02-06T05:50:29.450Z,370.00
2023-02-06T05:51:29.443Z,373.00
2023-02-06T05:52:29.405Z,372.00
2023-02-06T05:53:29.425Z,372.00
2023-02-06T05:54:29.375Z,376.00
2023-02-06T05:55:29.375Z,379.00
2023-02-06T05:56:29.337Z,377.00
2023-02-06T05:57:29.357Z,380.00
2023-02-06T05:58:29.339Z,391.00
2023-02-06T05:59:29.313Z,391.00
2023-02-06T06:00:29.313Z,393.00
2023-02-06T06:01:29.325Z,393.00
2023-02-06T06:02:29.345Z,398.00
2023-02-06T06:03:30.351Z,404.00
2023-02-06T06:04:29.274Z,404.00
2023-02-06T06:05:29.277Z,401.00
2023-02-06T06:06:29.264Z,406.00
2023-02-06T06:07:29.232Z,400.00
2023-02-06T06:08:29.205Z,400.00
2023-02-06T06:09:29.214Z,411.00
2023-02-06T06:10:29.214Z,414.00
2023-02-06T06:11:29.174Z,419.00
2023-02-06T06:12:29.180Z,420.00
2023-02-06T06:13:29.177Z,442.00
2023-02-06T06:14:29.133Z,449.00
2023-02-06T06:15:29.154Z,437.00
2023-02-06T06:16:29.121Z,437.00
2023-02-06T06:17:29.124Z,442.00
2023-02-06T06:18:29.107Z,453.00
2023-02-06T06:19:29.065Z,458.00
2023-02-06T06:20:29.121Z,443.00
2023-02-06T06:21:29.069Z,446.00
2023-02-06T06:22:29.052Z,445.00
2023-02-06T06:23:29.028Z,449.00
2023-02-06T06:24:29.012Z,436.00
2023-02-06T06:25:29.000Z,427.00
2023-02-06T06:26:28.989Z,424.00
2023-02-06T06:27:28.975Z,430.00
2023-02-06T06:28:28.982Z,402.00
2023-02-06T06:29:28.962Z,396.00
2023-02-06T06:30:28.933Z,383.00
2023-02-06T06:31:28.963Z,370.00
2023-02-06T06:32:28.913Z,367.00
2023-02-06T06:33:28.907Z,366.00
2023-02-06T06:34:28.913Z,368.00
2023-02-06T06:35:28.877Z,368.00
2023-02-06T06:36:28.849Z,378.00
2023-02-06T06:37:28.848Z,391.00
2023-02-06T06:38:28.829Z,425.00
2023-02-06T06:39:28.820Z,423.00
2023-02-06T06:40:28.801Z,411.00
2023-02-06T06:41:28.781Z,400.00
2023-02-06T06:42:28.780Z,405.00
2023-02-06T06:43:28.791Z,416.00
2023-02-06T06:44:28.780Z,403.00
2023-02-06T06:45:28.825Z,398.00
2023-02-06T06:46:28.759Z,396.00
2023-02-06T06:47:28.738Z,398.00
2023-02-06T06:48:28.710Z,394.00
2023-02-06T06:49:29.106Z,390.00
2023-02-06T06:50:28.716Z,386.00
2023-02-06T06:51:28.663Z,387.00
2023-02-06T06:52:28.675Z,385.00
2023-02-06T06:53:28.649Z,381.00
2023-02-06T06:54:28.671Z,382.00
2023-02-06T06:55:28.714Z,384.00
2023-02-06T06:56:28.629Z,378.00
2023-02-06T06:57:28.608Z,371.00
2023-02-06T06:58:28.614Z,376.00
2023-02-06T06:59:28.575Z,378.00
2023-02-06T07:00:28.582Z,380.00
2023-02-06T07:01:28.599Z,392.00
2023-02-06T07:02:28.780Z,396.00
2023-02-06T07:03:28.559Z,410.00
2023-02-06T07:04:28.508Z,418.00
2023-02-06T07:05:28.506Z,422.00
2023-02-06T07:06:28.496Z,429.00
2023-02-06T07:07:28.542Z,432.00
2023-02-06T07:08:28.470Z,434.00
2023-02-06T07:09:28.502Z,433.00
2023-02-06T07:10:28.488Z,435.00
2023-02-06T07:11:28.458Z,426.00
2023-02-06T07:12:28.429Z,423.00
2023-02-06T07:13:28.393Z,421.00
2023-02-06T07:14:28.399Z,423.00
2023-02-06T07:15:28.359Z,429.00
2023-02-06T07:16:28.396Z,426.00
2023-02-06T07:17:28.378Z,422.00
2023-02-06T07:18:28.316Z,423.00
2023-02-06T07:19:28.308Z,426.00
2023-02-06T07:20:28.337Z,427.00
2023-02-06T07:21:28.305Z,427.00
2023-02-06T07:22:28.299Z,425.00
2023-02-06T07:23:28.275Z,428.00
2023-02-06T07:24:28.260Z,423.00
2023-02-06T07:25:28.231Z,423.00
2023-02-06T07:26:28.213Z,430.00
2023-02-06T07:27:28.206Z,435.00
2023-02-06T07:28:28.206Z,437.00
2023-02-06T07:29:28.252Z,434.00
2023-02-06T07:30:28.244Z,435.00
2023-02-06T07:31:28.184Z,440.00
2023-02-06T07:32:28.136Z,438.00
2023-02-06T07:33:28.174Z,441.00
2023-02-06T07:34:28.129Z,441.00
2023-02-06T07:35:28.124Z,444.00
2023-02-06T07:36:28.103Z,444.00
2023-02-06T07:37:28.108Z,447.00
2023-02-06T07:38:28.110Z,442.00
2023-02-06T07:39:28.074Z,438.00
2023-02-06T07:40:43.101Z,423.00
2023-02-06T07:41:28.052Z,439.00
2023-02-06T07:42:28.027Z,449.00
2023-02-06T07:43:28.024Z,454.00
2023-02-06T07:44:28.052Z,466.00
2023-02-06T07:45:27.994Z,459.00
2023-02-06T07:46:27.985Z,454.00
2023-02-06T07:47:27.977Z,458.00
2023-02-06T07:48:27.965Z,464.00
2023-02-06T07:49:27.975Z,459.00
2023-02-06T07:50:27.918Z,453.00
2023-02-06T07:51:27.914Z,449.00
2023-02-06T07:52:27.899Z,443.00
2023-02-06T07:53:27.873Z,440.00
2023-02-06T07:54:27.868Z,437.00
2023-02-06T07:55:27.875Z,445.00
2023-02-06T07:56:27.844Z,447.00
2023-02-06T07:57:27.832Z,453.00
2023-02-06T07:58:27.822Z,436.00
2023-02-06T07:59:27.821Z,415.00
2023-02-06T08:00:27.803Z,414.00
2023-02-06T08:01:27.873Z,417.00
2023-02-06T08:02:27.797Z,430.00
2023-02-06T08:03:27.764Z,439.00
2023-02-06T08:04:27.777Z,449.00
2023-02-06T08:05:27.733Z,444.00
2023-02-06T08:06:27.741Z,395.00
2023-02-06T08:07:27.717Z,387.00
2023-02-06T08:08:27.712Z,387.00
2023-02-06T08:09:27.665Z,388.00
2023-02-06T08:10:27.681Z,390.00
2023-02-06T08:11:27.670Z,392.00
2023-02-06T08:12:27.681Z,398.00
2023-02-06T08:13:27.636Z,407.00
2023-02-06T08:14:27.617Z,418.00
2023-02-06T08:15:27.596Z,433.00
2023-02-06T08:16:27.645Z,449.00
2023-02-06T08:17:27.565Z,468.00
2023-02-06T08:18:27.593Z,444.00
2023-02-06T08:19:27.557Z,444.00
2023-02-06T08:20:27.589Z,442.00
2023-02-06T08:21:27.540Z,455.00
2023-02-06T08:22:27.503Z,469.00
2023-02-06T08:23:27.514Z,467.00
2023-02-06T08:24:27.509Z,459.00
2023-02-06T08:25:27.478Z,460.00
2023-02-06T08:26:27.511Z,465.00
2023-02-06T08:27:27.451Z,471.00
2023-02-06T08:28:27.443Z,457.00
2023-02-06T08:29:27.417Z,425.00
2023-02-06T08:30:27.447Z,415.00
2023-02-06T08:31:27.496Z,404.00
2023-02-06T08:32:27.389Z,402.00
2023-02-06T08:33:27.394Z,396.00
2023-02-06T08:34:27.378Z,393.00
2023-02-06T08:35:27.340Z,375.00
2023-02-06T08:36:27.366Z,374.00
2023-02-06T08:37:27.331Z,377.00
2023-02-06T08:38:27.323Z,383.00
2023-02-06T08:39:27.302Z,389.00
2023-02-06T08:40:27.316Z,400.00
2023-02-06T08:41:27.343Z,424.00
2023-02-06T08:42:27.363Z,443.00
2023-02-06T08:43:27.241Z,442.00
2023-02-06T08:44:27.254Z,444.00
2023-02-06T08:45:27.226Z,448.00
2023-02-06T08:46:27.264Z,447.00
2023-02-06T08:47:27.203Z,458.00
2023-02-06T08:48:27.248Z,460.00
2023-02-06T08:49:27.184Z,459.00
2023-02-06T08:50:27.204Z,452.00
2023-02-06T08:51:27.178Z,459.00
2023-02-06T08:52:27.169Z,472.00
2023-02-06T08:53:27.213Z,456.00
2023-02-06T08:54:27.194Z,444.00
2023-02-06T08:55:27.210Z,417.00
2023-02-06T08:56:27.139Z,407.00
2023-02-06T08:57:27.072Z,399.00
2023-02-06T08:58:27.152Z,394.00
2023-02-06T08:59:27.113Z,389.00
2023-02-06T09:00:27.075Z,391.00
2023-02-06T09:01:27.127Z,387.00
2023-02-06T09:02:27.103Z,396.00
2023-02-06T09:03:27.069Z,405.00
2023-02-06T09:04:26.990Z,411.00
2023-02-06T09:05:27.084Z,423.00
2023-02-06T09:06:26.963Z,441.00
2023-02-06T09:07:26.940Z,447.00
2023-02-06T09:08:26.932Z,454.00
2023-02-06T09:09:26.924Z,462.00
2023-02-06T09:10:28.203Z,459.00
2023-02-06T09:11:26.878Z,461.00
2023-02-06T09:12:26.922Z,458.00
2023-02-06T09:13:26.870Z,450.00
2023-02-06T09:14:26.881Z,438.00
2023-02-06T09:15:26.830Z,447.00
2023-02-06T09:16:26.871Z,457.00
2023-02-06T09:17:26.801Z,459.00
2023-02-06T09:18:26.858Z,460.00
2023-02-06T09:19:26.767Z,459.00
2023-02-06T09:20:26.763Z,458.00
2023-02-06T09:21:26.753Z,462.00
2023-02-06T09:22:26.762Z,467.00
2023-02-06T09:23:26.718Z,469.00
2023-02-06T09:24:26.712Z,468.00
2023-02-06T09:25:26.724Z,473.00
2023-02-06T09:26:26.728Z,474.00
2023-02-06T09:27:26.687Z,466.00
2023-02-06T09:28:26.915Z,459.00
2023-02-06T09:29:26.644Z,471.00
2023-02-06T09:30:26.735Z,463.00
2023-02-06T09:31:26.719Z,453.00
2023-02-06T09:32:26.613Z,460.00
2023-02-06T09:33:26.681Z,457.00
2023-02-06T09:34:26.595Z,468.00
2023-02-06T09:35:26.577Z,461.00
2023-02-06T09:36:26.571Z,456.00
2023-02-06T09:37:26.559Z,461.00
2023-02-06T09:38:26.577Z,464.00
2023-02-06T09:39:26.522Z,467.00
2023-02-06T09:40:26.517Z,471.00
2023-02-06T09:41:26.509Z,469.00
2023-02-06T09:42:26.500Z,459.00
2023-02-06T09:43:26.477Z,449.00
2023-02-06T09:44:26.490Z,451.00
2023-02-06T09:45:26.441Z,449.00
2023-02-06T09:46:26.493Z,438.00
2023-02-06T09:47:26.421Z,420.00
2023-02-06T09:48:26.433Z,408.00
2023-02-06T09:49:26.441Z,419.00
2023-02-06T09:50:26.393Z,440.00
2023-02-06T09:51:26.368Z,457.00
2023-02-06T09:52:26.354Z,467.00
2023-02-06T09:53:26.345Z,466.00
2023-02-06T09:54:26.361Z,472.00
2023-02-06T09:55:26.316Z,478.00
2023-02-06T09:56:26.302Z,469.00
2023-02-06T09:57:26.278Z,467.00
2023-02-06T09:58:26.313Z,451.00
2023-02-06T09:59:26.281Z,474.00
2023-02-06T10:00:26.251Z,478.00
2023-02-06T10:01:26.248Z,473.00
2023-02-06T10:02:26.220Z,460.00
2023-02-06T10:03:26.208Z,469.00
2023-02-06T10:04:26.252Z,460.00
2023-02-06T10:05:26.225Z,459.00
2023-02-06T10:06:26.194Z,452.00
2023-02-06T10:07:26.156Z,455.00
2023-02-06T10:08:26.184Z,448.00
2023-02-06T10:09:26.161Z,451.00
2023-02-06T10:10:26.141Z,454.00
2023-02-06T10:11:26.124Z,458.00
2023-02-06T10:12:26.093Z,460.00
2023-02-06T10:13:26.095Z,477.00
2023-02-06T10:14:26.066Z,463.00
2023-02-06T10:15:26.061Z,462.00
2023-02-06T10:16:26.103Z,468.00
2023-02-06T10:17:26.045Z,469.00
2023-02-06T10:18:26.032Z,477.00
2023-02-06T10:19:26.024Z,480.00
2023-02-06T10:20:26.028Z,484.00
2023-02-06T10:21:26.018Z,478.00
2023-02-06T10:22:25.963Z,472.00
2023-02-06T10:23:25.978Z,469.00
2023-02-06T10:24:25.970Z,474.00
2023-02-06T10:25:25.930Z,466.00
2023-02-06T10:26:25.931Z,462.00
2023-02-06T10:27:25.966Z,453.00
2023-02-06T10:28:25.904Z,452.00
2023-02-06T10:29:25.939Z,453.00
2023-02-06T10:30:25.887Z,459.00
2023-02-06T10:31:25.942Z,469.00
2023-02-06T10:32:25.856Z,472.00
2023-02-06T10:33:26.152Z,481.00
2023-02-06T10:34:25.836Z,478.00
2023-02-06T10:35:25.823Z,470.00
2023-02-06T10:36:25.820Z,455.00
2023-02-06T10:37:25.801Z,459.00
2023-02-06T10:38:25.846Z,435.00
2023-02-06T10:39:25.779Z,435.00
2023-02-06T10:40:25.758Z,435.00
2023-02-06T10:41:25.746Z,436.00
2023-02-06T10:42:25.715Z,438.00
2023-02-06T10:43:25.742Z,443.00
2023-02-06T10:44:25.716Z,446.00
2023-02-06T10:45:25.686Z,446.00
2023-02-06T10:46:25.709Z,468.00
2023-02-06T10:47:25.657Z,473.00
2023-02-06T10:48:25.643Z,473.00
2023-02-06T10:49:25.701Z,461.00
2023-02-06T10:50:25.646Z,449.00
2023-02-06T10:51:25.637Z,458.00
2023-02-06T10:52:25.608Z,460.00
2023-02-06T10:53:25.648Z,469.00
2023-02-06T10:54:25.612Z,461.00
2023-02-06T10:55:25.602Z,469.00
2023-02-06T10:56:25.540Z,467.00
2023-02-06T10:57:25.545Z,463.00
2023-02-06T10:58:25.579Z,459.00
2023-02-06T10:59:25.572Z,464.00
2023-02-06T11:00:25.544Z,465.00
2023-02-06T11:01:26.976Z,470.00
2023-02-06T11:02:25.564Z,477.00
2023-02-06T11:03:25.440Z,480.00
2023-02-06T11:04:25.469Z,481.00
2023-02-06T11:05:25.436Z,475.00
2023-02-06T11:06:25.415Z,472.00
2023-02-06T11:07:25.435Z,488.00
2023-02-06T11:08:25.412Z,472.00
2023-02-06T11:09:25.387Z,473.00
2023-02-06T11:10:25.360Z,480.00
2023-02-06T11:11:25.356Z,482.00
2023-02-06T11:12:25.342Z,465.00
2023-02-06T11:13:25.329Z,466.00
2023-02-06T11:14:25.407Z,459.00
2023-02-06T11:15:25.334Z,433.00
2023-02-06T11:16:25.331Z,408.00
2023-02-06T11:17:25.276Z,398.00
2023-02-06T11:18:25.254Z,397.00
2023-02-06T11:19:25.276Z,411.00
2023-02-06T11:20:25.256Z,404.00
2023-02-06T11:21:25.249Z,401.00
2023-02-06T11:22:25.246Z,400.00
2023-02-06T11:23:25.187Z,398.00
2023-02-06T11:24:25.198Z,400.00
2023-02-06T11:25:25.190Z,397.00
2023-02-06T11:26:25.152Z,395.00
2023-02-06T11:27:25.134Z,395.00
2023-02-06T11:28:25.214Z,394.00
2023-02-06T11:29:25.112Z,394.00
2023-02-06T11:30:25.165Z,396.00
2023-02-06T11:31:25.104Z,397.00
2023-02-06T11:32:25.074Z,395.00
2023-02-06T11:33:25.071Z,393.00
2023-02-06T11:34:25.065Z,395.00
2023-02-06T11:35:25.054Z,397.00
2023-02-06T11:36:25.082Z,397.00
2023-02-06T11:37:25.038Z,402.00
2023-02-06T11:38:25.043Z,401.00
2023-02-06T11:39:24.982Z,414.00
2023-02-06T11:40:24.982Z,466.00
2023-02-06T11:41:24.979Z,470.00
2023-02-06T11:42:24.976Z,449.00
2023-02-06T11:43:24.986Z,436.00
2023-02-06T11:44:24.952Z,404.00
2023-02-06T11:45:25.007Z,401.00
2023-02-06T11:46:24.946Z,401.00
2023-02-06T11:47:24.913Z,405.00
2023-02-06T11:48:24.957Z,406.00
2023-02-06T11:49:24.936Z,399.00
2023-02-06T11:50:24.902Z,394.00
2023-02-06T11:51:24.857Z,395.00
2023-02-06T11:52:24.877Z,399.00
2023-02-06T11:53:24.825Z,401.00
2023-02-06T11:54:24.828Z,408.00
2023-02-06T11:55:24.778Z,410.00
2023-02-06T11:56:24.787Z,416.00
2023-02-06T11:57:24.803Z,424.00
2023-02-06T11:58:24.819Z,411.00
2023-02-06T11:59:24.784Z,408.00
2023-02-06T12:00:24.784Z,406.00
2023-02-06T12:01:24.724Z,404.00
2023-02-06T12:02:24.813Z,406.00
2023-02-06T12:03:24.747Z,417.00
2023-02-06T12:04:24.724Z,432.00
2023-02-06T12:05:24.654Z,427.00
2023-02-06T12:06:24.671Z,416.00
2023-02-06T12:07:24.642Z,404.00
2023-02-06T12:08:24.623Z,395.00
2023-02-06T12:09:24.629Z,392.00
2023-02-06T12:10:24.626Z,389.00
2023-02-06T12:11:24.584Z,388.00
2023-02-06T12:12:24.596Z,387.00
2023-02-06T12:13:24.583Z,389.00
2023-02-06T12:14:24.559Z,396.00
2023-02-06T12:15:44.878Z,388.00
2023-02-06T12:16:24.590Z,385.00
2023-02-06T12:17:24.500Z,381.00
2023-02-06T12:18:24.514Z,384.00
2023-02-06T12:19:24.527Z,391.00
2023-02-06T12:20:26.735Z,405.00
2023-02-06T12:21:24.540Z,434.00
2023-02-06T12:22:24.455Z,414.00
2023-02-06T12:23:24.434Z,401.00
2023-02-06T12:24:24.433Z,396.00
2023-02-06T12:25:24.406Z,399.00
2023-02-06T12:26:24.452Z,472.00
2023-02-06T12:27:24.395Z,423.00
2023-02-06T12:28:24.376Z,415.00
2023-02-06T12:29:24.366Z,466.00
2023-02-06T12:30:24.366Z,435.00
2023-02-06T12:31:24.469Z,384.00
2023-02-06T12:32:24.323Z,388.00
2023-02-06T12:33:24.333Z,385.00
2023-02-06T12:34:24.311Z,381.00
2023-02-06T12:35:24.340Z,373.00